sensor_id;sensor_type;location;lat;lon;timestamp;P1;durP1;ratioP1;P2;durP2;ratioP2
54575;SDS011;40472;53.486;14.542;2023-03-01T00:00:42;21.30;;;7.28;;
54575;SDS011;40472;53.486;14.542;2023-03-01T00:03:11;11.23;;;3.65;;
54575;SDS011;40472;53.486;14.542;2023-03-01T00:05:43;6.60;;;2.78;;
54575;SDS011;40472;53.486;14.542;2023-03-01T00:08:09;4.70;;;2.33;;
54575;SDS011;40472;53.486;14.542;2023-03-01T00:10:35;5.28;;;2.38;;
54575;SDS011;40472;53.486;14.542;2023-03-01T00:13:01;2.97;;;1.10;;
54575;SDS011;40472;53.486;14.542;2023-03-01T00:15:26;3.00;;;1.60;;
54575;SDS011;40472;53.486;14.542;2023-03-01T00:17:52;3.80;;;1.45;;
54575;SDS011;40472;53.486;14.542;2023-03-01T00:20:18;3.08;;;1.30;;
54575;SDS011;40472;53.486;14.542;2023-03-01T00:22:43;3.08;;;1.20;;
54575;SDS011;40472;53.486;14.542;2023-03-01T00:25:09;2.88;;;1.38;;
54575;SDS011;40472;53.486;14.542;2023-03-01T00:27:35;6.25;;;1.77;;
54575;SDS011;40472;53.486;14.542;2023-03-01T00:30:01;5.40;;;2.17;;
54575;SDS011;40472;53.486;14.542;2023-03-01T00:32:27;4.47;;;2.17;;
54575;SDS011;40472;53.486;14.542;2023-03-01T00:34:52;6.22;;;2.13;;
54575;SDS011;40472;53.486;14.542;2023-03-01T00:37:21;8.32;;;2.20;;
54575;SDS011;40472;53.486;14.542;2023-03-01T00:39:48;4.18;;;1.63;;
54575;SDS011;40472;53.486;14.542;2023-03-01T00:42:14;3.10;;;2.20;;
54575;SDS011;40472;53.486;14.542;2023-03-01T00:44:40;5.20;;;2.10;;
54575;SDS011;40472;53.486;14.542;2023-03-01T00:47:06;6.38;;;2.20;;
54575;SDS011;40472;53.486;14.542;2023-03-01T00:49:32;4.38;;;1.90;;
54575;SDS011;40472;53.486;14.542;2023-03-01T00:51:59;8.05;;;2.03;;
54575;SDS011;40472;53.486;14.542;2023-03-01T00:54:25;7.43;;;2.17;;
54575;SDS011;40472;53.486;14.542;2023-03-01T00:56:51;11.57;;;2.78;;
54575;SDS011;40472;53.486;14.542;2023-03-01T00:59:17;4.32;;;1.77;;
54575;SDS011;40472;53.486;14.542;2023-03-01T01:01:43;6.82;;;2.35;;
54575;SDS011;40472;53.486;14.542;2023-03-01T01:04:10;11.52;;;2.47;;
54575;SDS011;40472;53.486;14.542;2023-03-01T01:06:38;6.88;;;2.30;;
54575;SDS011;40472;53.486;14.542;2023-03-01T01:09:07;9.77;;;2.33;;
54575;SDS011;40472;53.486;14.542;2023-03-01T01:11:34;7.22;;;2.67;;
54575;SDS011;40472;53.486;14.542;2023-03-01T01:14:01;3.80;;;2.22;;
54575;SDS011;40472;53.486;14.542;2023-03-01T01:16:28;4.95;;;1.77;;
54575;SDS011;40472;53.486;14.542;2023-03-01T01:18:54;4.40;;;1.98;;
54575;SDS011;40472;53.486;14.542;2023-03-01T01:21:21;5.57;;;2.17;;
54575;SDS011;40472;53.486;14.542;2023-03-01T01:23:48;7.28;;;2.13;;
54575;SDS011;40472;53.486;14.542;2023-03-01T01:26:17;8.52;;;2.58;;
54575;SDS011;40472;53.486;14.542;2023-03-01T01:28:45;4.18;;;1.83;;
54575;SDS011;40472;53.486;14.542;2023-03-01T01:31:12;7.80;;;2.42;;
54575;SDS011;40472;53.486;14.542;2023-03-01T01:33:39;6.32;;;2.67;;
54575;SDS011;40472;53.486;14.542;2023-03-01T01:36:06;5.63;;;2.60;;
54575;SDS011;40472;53.486;14.542;2023-03-01T01:38:33;4.95;;;2.13;;
54575;SDS011;40472;53.486;14.542;2023-03-01T01:40:59;3.40;;;1.70;;
54575;SDS011;40472;53.486;14.542;2023-03-01T01:43:27;5.38;;;2.47;;
54575;SDS011;40472;53.486;14.542;2023-03-01T01:46:01;9.65;;;2.88;;
54575;SDS011;40472;53.486;14.542;2023-03-01T01:48:56;4.55;;;1.80;;
54575;SDS011;40472;53.486;14.542;2023-03-01T01:51:30;3.67;;;2.03;;
54575;SDS011;40472;53.486;14.542;2023-03-01T01:54:06;2.20;;;1.50;;
54575;SDS011;40472;53.486;14.542;2023-03-01T01:56:37;3.13;;;1.35;;
54575;SDS011;40472;53.486;14.542;2023-03-01T01:59:07;3.13;;;1.98;;
54575;SDS011;40472;53.486;14.542;2023-03-01T02:01:34;3.30;;;1.67;;
54575;SDS011;40472;53.486;14.542;2023-03-01T02:04:00;3.03;;;1.58;;
54575;SDS011;40472;53.486;14.542;2023-03-01T02:06:27;4.28;;;1.90;;
54575;SDS011;40472;53.486;14.542;2023-03-01T02:08:59;3.47;;;1.52;;
54575;SDS011;40472;53.486;14.542;2023-03-01T02:11:30;4.82;;;1.95;;
54575;SDS011;40472;53.486;14.542;2023-03-01T02:13:58;4.30;;;1.58;;
54575;SDS011;40472;53.486;14.542;2023-03-01T02:16:24;7.80;;;2.13;;
54575;SDS011;40472;53.486;14.542;2023-03-01T02:18:52;6.25;;;1.50;;
54575;SDS011;40472;53.486;14.542;2023-03-01T02:24:28;2.07;;;1.57;;
54575;SDS011;40472;53.486;14.542;2023-03-01T02:27:02;3.10;;;1.55;;
54575;SDS011;40472;53.486;14.542;2023-03-01T02:29:29;3.13;;;1.55;;
54575;SDS011;40472;53.486;14.542;2023-03-01T02:31:56;5.03;;;1.67;;
54575;SDS011;40472;53.486;14.542;2023-03-01T02:34:24;4.45;;;1.60;;
54575;SDS011;40472;53.486;14.542;2023-03-01T02:39:39;2.42;;;1.60;;
54575;SDS011;40472;53.486;14.542;2023-03-01T02:42:12;2.97;;;1.80;;
54575;SDS011;40472;53.486;14.542;2023-03-01T02:44:42;3.90;;;1.48;;
54575;SDS011;40472;53.486;14.542;2023-03-01T02:47:07;1.77;;;1.10;;
54575;SDS011;40472;53.486;14.542;2023-03-01T02:49:34;3.33;;;1.70;;
54575;SDS011;40472;53.486;14.542;2023-03-01T02:52:12;6.75;;;1.50;;
54575;SDS011;40472;53.486;14.542;2023-03-01T02:55:00;2.80;;;1.77;;
54575;SDS011;40472;53.486;14.542;2023-03-01T02:57:27;4.95;;;1.40;;
54575;SDS011;40472;53.486;14.542;2023-03-01T02:59:55;3.30;;;0.93;;
54575;SDS011;40472;53.486;14.542;2023-03-01T03:02:29;2.97;;;1.75;;
54575;SDS011;40472;53.486;14.542;2023-03-01T03:05:11;2.88;;;1.20;;
54575;SDS011;40472;53.486;14.542;2023-03-01T03:07:40;5.38;;;1.27;;
54575;SDS011;40472;53.486;14.542;2023-03-01T03:10:13;1.98;;;0.98;;
54575;SDS011;40472;53.486;14.542;2023-03-01T03:12:40;4.75;;;1.13;;
54575;SDS011;40472;53.486;14.542;2023-03-01T03:15:07;2.65;;;1.50;;
54575;SDS011;40472;53.486;14.542;2023-03-01T03:17:38;4.25;;;1.45;;
54575;SDS011;40472;53.486;14.542;2023-03-01T03:20:05;3.22;;;1.50;;
54575;SDS011;40472;53.486;14.542;2023-03-01T03:22:35;5.25;;;1.60;;
54575;SDS011;40472;53.486;14.542;2023-03-01T03:25:02;1.70;;;1.25;;
54575;SDS011;40472;53.486;14.542;2023-03-01T03:27:28;6.97;;;1.50;;
54575;SDS011;40472;53.486;14.542;2023-03-01T03:29:54;2.88;;;1.40;;
54575;SDS011;40472;53.486;14.542;2023-03-01T03:32:20;4.13;;;1.45;;
54575;SDS011;40472;53.486;14.542;2023-03-01T03:34:45;3.95;;;1.48;;
54575;SDS011;40472;53.486;14.542;2023-03-01T03:37:11;4.15;;;1.30;;
54575;SDS011;40472;53.486;14.542;2023-03-01T03:39:57;1.45;;;1.10;;
54575;SDS011;40472;53.486;14.542;2023-03-01T03:42:24;1.70;;;0.95;;
54575;SDS011;40472;53.486;14.542;2023-03-01T03:44:50;1.27;;;0.95;;
54575;SDS011;40472;53.486;14.542;2023-03-01T03:47:15;0.95;;;0.68;;
54575;SDS011;40472;53.486;14.542;2023-03-01T03:49:41;1.92;;;1.08;;
54575;SDS011;40472;53.486;14.542;2023-03-01T03:52:07;2.38;;;1.23;;
54575;SDS011;40472;53.486;14.542;2023-03-01T03:54:39;5.47;;;1.20;;
54575;SDS011;40472;53.486;14.542;2023-03-01T03:57:07;3.15;;;1.10;;
54575;SDS011;40472;53.486;14.542;2023-03-01T03:59:33;2.78;;;1.38;;
54575;SDS011;40472;53.486;14.542;2023-03-01T04:01:59;5.72;;;1.48;;
54575;SDS011;40472;53.486;14.542;2023-03-01T04:04:25;1.63;;;1.15;;
54575;SDS011;40472;53.486;14.542;2023-03-01T04:06:51;2.15;;;1.30;;
54575;SDS011;40472;53.486;14.542;2023-03-01T04:09:18;1.70;;;1.05;;
54575;SDS011;40472;53.486;14.542;2023-03-01T04:11:46;4.28;;;1.80;;
54575;SDS011;40472;53.486;14.542;2023-03-01T04:14:11;2.60;;;1.33;;
54575;SDS011;40472;53.486;14.542;2023-03-01T04:16:37;2.53;;;1.30;;
54575;SDS011;40472;53.486;14.542;2023-03-01T04:19:03;3.80;;;1.48;;
54575;SDS011;40472;53.486;14.542;2023-03-01T04:21:31;2.15;;;0.82;;
54575;SDS011;40472;53.486;14.542;2023-03-01T04:23:57;3.95;;;1.33;;
54575;SDS011;40472;53.486;14.542;2023-03-01T04:26:23;4.30;;;1.15;;
54575;SDS011;40472;53.486;14.542;2023-03-01T04:28:49;3.22;;;1.67;;
54575;SDS011;40472;53.486;14.542;2023-03-01T04:31:16;2.47;;;1.05;;
54575;SDS011;40472;53.486;14.542;2023-03-01T04:33:44;8.07;;;1.88;;
54575;SDS011;40472;53.486;14.542;2023-03-01T04:36:12;2.38;;;1.25;;
54575;SDS011;40472;53.486;14.542;2023-03-01T04:38:40;2.53;;;1.17;;
54575;SDS011;40472;53.486;14.542;2023-03-01T04:41:07;2.63;;;1.35;;
54575;SDS011;40472;53.486;14.542;2023-03-01T04:43:35;10.73;;;1.60;;
54575;SDS011;40472;53.486;14.542;2023-03-01T04:46:03;4.50;;;1.50;;
54575;SDS011;40472;53.486;14.542;2023-03-01T04:48:31;1.73;;;1.10;;
54575;SDS011;40472;53.486;14.542;2023-03-01T04:51:00;2.05;;;1.35;;
54575;SDS011;40472;53.486;14.542;2023-03-01T04:53:26;4.55;;;2.13;;
54575;SDS011;40472;53.486;14.542;2023-03-01T04:55:56;10.93;;;1.48;;
54575;SDS011;40472;53.486;14.542;2023-03-01T04:58:23;2.55;;;0.90;;
54575;SDS011;40472;53.486;14.542;2023-03-01T05:00:49;4.38;;;1.42;;
54575;SDS011;40472;53.486;14.542;2023-03-01T05:03:15;4.97;;;1.10;;
54575;SDS011;40472;53.486;14.542;2023-03-01T05:05:43;3.30;;;1.10;;
54575;SDS011;40472;53.486;14.542;2023-03-01T05:08:11;4.25;;;1.70;;
54575;SDS011;40472;53.486;14.542;2023-03-01T05:10:42;1.77;;;1.27;;
54575;SDS011;40472;53.486;14.542;2023-03-01T05:13:11;1.48;;;1.15;;
54575;SDS011;40472;53.486;14.542;2023-03-01T05:15:38;2.15;;;1.42;;
54575;SDS011;40472;53.486;14.542;2023-03-01T05:18:04;1.88;;;0.88;;
54575;SDS011;40472;53.486;14.542;2023-03-01T05:20:36;2.20;;;1.25;;
54575;SDS011;40472;53.486;14.542;2023-03-01T05:23:03;0.95;;;0.88;;
54575;SDS011;40472;53.486;14.542;2023-03-01T05:25:30;3.55;;;1.42;;
54575;SDS011;40472;53.486;14.542;2023-03-01T05:28:00;6.40;;;1.67;;
54575;SDS011;40472;53.486;14.542;2023-03-01T05:30:31;3.20;;;1.40;;
54575;SDS011;40472;53.486;14.542;2023-03-01T05:32:58;4.20;;;1.58;;
54575;SDS011;40472;53.486;14.542;2023-03-01T05:35:25;3.83;;;1.35;;
54575;SDS011;40472;53.486;14.542;2023-03-01T05:37:51;2.40;;;1.52;;
54575;SDS011;40472;53.486;14.542;2023-03-01T05:40:18;1.30;;;0.98;;
54575;SDS011;40472;53.486;14.542;2023-03-01T05:42:49;6.75;;;1.60;;
54575;SDS011;40472;53.486;14.542;2023-03-01T05:45:22;3.22;;;1.52;;
54575;SDS011;40472;53.486;14.542;2023-03-01T05:47:49;4.13;;;1.27;;
54575;SDS011;40472;53.486;14.542;2023-03-01T05:50:16;4.40;;;1.65;;
54575;SDS011;40472;53.486;14.542;2023-03-01T05:52:48;7.90;;;2.90;;
54575;SDS011;40472;53.486;14.542;2023-03-01T05:55:33;11.88;;;4.72;;
54575;SDS011;40472;53.486;14.542;2023-03-01T05:58:04;8.65;;;3.55;;
54575;SDS011;40472;53.486;14.542;2023-03-01T06:00:31;7.60;;;4.03;;
54575;SDS011;40472;53.486;14.542;2023-03-01T06:02:58;3.70;;;2.20;;
54575;SDS011;40472;53.486;14.542;2023-03-01T06:05:25;3.15;;;1.88;;
54575;SDS011;40472;53.486;14.542;2023-03-01T06:07:51;5.93;;;1.90;;
54575;SDS011;40472;53.486;14.542;2023-03-01T06:10:18;3.47;;;1.80;;
54575;SDS011;40472;53.486;14.542;2023-03-01T06:12:45;3.85;;;2.15;;
54575;SDS011;40472;53.486;14.542;2023-03-01T06:15:12;2.88;;;1.65;;
54575;SDS011;40472;53.486;14.542;2023-03-01T06:17:39;3.20;;;1.20;;
54575;SDS011;40472;53.486;14.542;2023-03-01T06:20:17;3.92;;;2.03;;
54575;SDS011;40472;53.486;14.542;2023-03-01T06:22:45;3.40;;;1.50;;
54575;SDS011;40472;53.486;14.542;2023-03-01T06:25:13;5.05;;;1.63;;
54575;SDS011;40472;53.486;14.542;2023-03-01T06:27:42;1.95;;;1.35;;
54575;SDS011;40472;53.486;14.542;2023-03-01T06:30:11;4.35;;;1.90;;
54575;SDS011;40472;53.486;14.542;2023-03-01T06:32:40;3.80;;;1.75;;
54575;SDS011;40472;53.486;14.542;2023-03-01T06:35:10;2.60;;;1.60;;
54575;SDS011;40472;53.486;14.542;2023-03-01T06:37:37;3.40;;;1.55;;
54575;SDS011;40472;53.486;14.542;2023-03-01T06:40:04;3.45;;;1.27;;
54575;SDS011;40472;53.486;14.542;2023-03-01T06:42:34;6.25;;;1.85;;
54575;SDS011;40472;53.486;14.542;2023-03-01T06:45:01;6.53;;;2.22;;
54575;SDS011;40472;53.486;14.542;2023-03-01T06:47:31;4.57;;;2.58;;
54575;SDS011;40472;53.486;14.542;2023-03-01T06:49:58;6.80;;;2.60;;
54575;SDS011;40472;53.486;14.542;2023-03-01T06:52:25;5.43;;;2.70;;
54575;SDS011;40472;53.486;14.542;2023-03-01T06:54:51;8.27;;;3.03;;
54575;SDS011;40472;53.486;14.542;2023-03-01T06:57:17;3.70;;;2.33;;
54575;SDS011;40472;53.486;14.542;2023-03-01T06:59:43;3.97;;;2.65;;
54575;SDS011;40472;53.486;14.542;2023-03-01T07:02:10;4.32;;;2.25;;
54575;SDS011;40472;53.486;14.542;2023-03-01T07:04:37;3.25;;;1.67;;
54575;SDS011;40472;53.486;14.542;2023-03-01T07:07:03;3.30;;;1.70;;
54575;SDS011;40472;53.486;14.542;2023-03-01T07:09:29;5.18;;;2.65;;
54575;SDS011;40472;53.486;14.542;2023-03-01T07:11:55;4.63;;;1.90;;
54575;SDS011;40472;53.486;14.542;2023-03-01T07:14:22;5.90;;;3.05;;
54575;SDS011;40472;53.486;14.542;2023-03-01T07:16:50;3.08;;;2.08;;
54575;SDS011;40472;53.486;14.542;2023-03-01T07:19:20;6.40;;;2.85;;
54575;SDS011;40472;53.486;14.542;2023-03-01T07:21:46;12.90;;;5.43;;
54575;SDS011;40472;53.486;14.542;2023-03-01T07:24:12;10.10;;;2.90;;
54575;SDS011;40472;53.486;14.542;2023-03-01T07:26:39;10.95;;;3.25;;
54575;SDS011;40472;53.486;14.542;2023-03-01T07:29:05;12.02;;;3.15;;
54575;SDS011;40472;53.486;14.542;2023-03-01T07:31:33;7.57;;;2.60;;
54575;SDS011;40472;53.486;14.542;2023-03-01T07:33:59;3.72;;;1.63;;
54575;SDS011;40472;53.486;14.542;2023-03-01T07:36:25;4.88;;;2.30;;
54575;SDS011;40472;53.486;14.542;2023-03-01T07:38:51;2.75;;;1.77;;
54575;SDS011;40472;53.486;14.542;2023-03-01T07:41:20;10.05;;;1.95;;
54575;SDS011;40472;53.486;14.542;2023-03-01T07:43:47;8.82;;;2.45;;
54575;SDS011;40472;53.486;14.542;2023-03-01T07:46:12;7.25;;;1.70;;
54575;SDS011;40472;53.486;14.542;2023-03-01T07:48:39;7.38;;;2.58;;
54575;SDS011;40472;53.486;14.542;2023-03-01T07:51:05;4.00;;;1.48;;
54575;SDS011;40472;53.486;14.542;2023-03-01T07:53:32;3.03;;;1.88;;
54575;SDS011;40472;53.486;14.542;2023-03-01T07:58:38;3.47;;;1.85;;
54575;SDS011;40472;53.486;14.542;2023-03-01T08:01:06;2.88;;;1.65;;
54575;SDS011;40472;53.486;14.542;2023-03-01T08:03:34;5.57;;;1.58;;
54575;SDS011;40472;53.486;14.542;2023-03-01T08:06:05;5.75;;;1.60;;
54575;SDS011;40472;53.486;14.542;2023-03-01T08:08:32;3.22;;;1.77;;
54575;SDS011;40472;53.486;14.542;2023-03-01T08:10:59;4.72;;;1.83;;
54575;SDS011;40472;53.486;14.542;2023-03-01T08:13:27;4.28;;;2.40;;
54575;SDS011;40472;53.486;14.542;2023-03-01T08:15:53;3.75;;;1.83;;
54575;SDS011;40472;53.486;14.542;2023-03-01T08:18:20;4.13;;;2.22;;
54575;SDS011;40472;53.486;14.542;2023-03-01T08:20:46;7.80;;;2.33;;
54575;SDS011;40472;53.486;14.542;2023-03-01T08:23:12;6.05;;;2.28;;
54575;SDS011;40472;53.486;14.542;2023-03-01T08:25:38;4.63;;;1.65;;
54575;SDS011;40472;53.486;14.542;2023-03-01T08:28:04;2.13;;;1.38;;
54575;SDS011;40472;53.486;14.542;2023-03-01T08:30:30;9.25;;;4.25;;
54575;SDS011;40472;53.486;14.542;2023-03-01T08:32:57;6.20;;;2.30;;
54575;SDS011;40472;53.486;14.542;2023-03-01T08:35:23;4.90;;;1.73;;
54575;SDS011;40472;53.486;14.542;2023-03-01T08:37:49;7.63;;;2.45;;
54575;SDS011;40472;53.486;14.542;2023-03-01T08:40:14;10.15;;;2.92;;
54575;SDS011;40472;53.486;14.542;2023-03-01T08:42:41;4.72;;;1.45;;
54575;SDS011;40472;53.486;14.542;2023-03-01T08:45:10;6.80;;;2.70;;
54575;SDS011;40472;53.486;14.542;2023-03-01T08:47:36;7.05;;;2.25;;
54575;SDS011;40472;53.486;14.542;2023-03-01T08:50:02;5.20;;;2.00;;
54575;SDS011;40472;53.486;14.542;2023-03-01T08:52:29;4.55;;;2.63;;
54575;SDS011;40472;53.486;14.542;2023-03-01T08:54:55;6.03;;;2.38;;
54575;SDS011;40472;53.486;14.542;2023-03-01T08:57:21;5.60;;;2.58;;
54575;SDS011;40472;53.486;14.542;2023-03-01T08:59:47;4.75;;;2.28;;
54575;SDS011;40472;53.486;14.542;2023-03-01T09:02:14;3.42;;;1.88;;
54575;SDS011;40472;53.486;14.542;2023-03-01T09:04:42;5.00;;;2.13;;
54575;SDS011;40472;53.486;14.542;2023-03-01T09:07:09;7.35;;;2.80;;
54575;SDS011;40472;53.486;14.542;2023-03-01T09:09:36;4.63;;;2.47;;
54575;SDS011;40472;53.486;14.542;2023-03-01T09:12:02;6.03;;;2.47;;
54575;SDS011;40472;53.486;14.542;2023-03-01T09:14:31;5.38;;;2.67;;
54575;SDS011;40472;53.486;14.542;2023-03-01T09:16:58;5.57;;;2.92;;
54575;SDS011;40472;53.486;14.542;2023-03-01T09:19:27;4.50;;;1.67;;
54575;SDS011;40472;53.486;14.542;2023-03-01T09:21:54;18.63;;;4.20;;
54575;SDS011;40472;53.486;14.542;2023-03-01T09:24:21;7.97;;;3.30;;
54575;SDS011;40472;53.486;14.542;2023-03-01T09:26:48;8.25;;;3.83;;
54575;SDS011;40472;53.486;14.542;2023-03-01T09:29:16;11.40;;;3.45;;
54575;SDS011;40472;53.486;14.542;2023-03-01T09:31:42;13.00;;;4.63;;
54575;SDS011;40472;53.486;14.542;2023-03-01T09:34:09;10.20;;;4.20;;
54575;SDS011;40472;53.486;14.542;2023-03-01T09:36:35;9.15;;;3.17;;
54575;SDS011;40472;53.486;14.542;2023-03-01T09:39:01;8.75;;;3.80;;
54575;SDS011;40472;53.486;14.542;2023-03-01T09:47:03;5.72;;;2.25;;
54575;SDS011;40472;53.486;14.542;2023-03-01T09:49:30;12.25;;;4.47;;
54575;SDS011;40472;53.486;14.542;2023-03-01T09:54:44;3.35;;;1.52;;
54575;SDS011;40472;53.486;14.542;2023-03-01T09:57:14;9.20;;;3.72;;
54575;SDS011;40472;53.486;14.542;2023-03-01T10:02:27;6.75;;;3.78;;
54575;SDS011;40472;53.486;14.542;2023-03-01T10:05:04;8.02;;;3.33;;
54575;SDS011;40472;53.486;14.542;2023-03-01T10:10:34;6.38;;;3.30;;
54575;SDS011;40472;53.486;14.542;2023-03-01T10:13:07;2.47;;;1.67;;
54575;SDS011;40472;53.486;14.542;2023-03-01T10:15:59;3.90;;;2.33;;
54575;SDS011;40472;53.486;14.542;2023-03-01T10:18:33;6.93;;;3.08;;
54575;SDS011;40472;53.486;14.542;2023-03-01T10:21:02;9.93;;;4.20;;
54575;SDS011;40472;53.486;14.542;2023-03-01T10:23:49;8.45;;;3.72;;
54575;SDS011;40472;53.486;14.542;2023-03-01T10:29:17;7.43;;;3.60;;
54575;SDS011;40472;53.486;14.542;2023-03-01T10:31:50;8.40;;;3.42;;
54575;SDS011;40472;53.486;14.542;2023-03-01T10:36:45;8.77;;;3.90;;
54575;SDS011;40472;53.486;14.542;2023-03-01T10:39:16;6.90;;;3.63;;
54575;SDS011;40472;53.486;14.542;2023-03-01T10:41:52;10.93;;;3.58;;
54575;SDS011;40472;53.486;14.542;2023-03-01T10:44:34;9.45;;;3.63;;
54575;SDS011;40472;53.486;14.542;2023-03-01T10:47:21;6.75;;;3.55;;
54575;SDS011;40472;53.486;14.542;2023-03-01T10:52:21;12.05;;;3.63;;
54575;SDS011;40472;53.486;14.542;2023-03-01T10:54:57;8.55;;;3.70;;
54575;SDS011;40472;53.486;14.542;2023-03-01T10:57:28;10.10;;;3.90;;
54575;SDS011;40472;53.486;14.542;2023-03-01T11:03:02;7.00;;;3.45;;
54575;SDS011;40472;53.486;14.542;2023-03-01T11:05:36;6.88;;;3.30;;
54575;SDS011;40472;53.486;14.542;2023-03-01T11:08:02;6.72;;;3.42;;
54575;SDS011;40472;53.486;14.542;2023-03-01T11:10:33;5.72;;;2.70;;
54575;SDS011;40472;53.486;14.542;2023-03-01T11:13:08;9.77;;;3.45;;
54575;SDS011;40472;53.486;14.542;2023-03-01T11:15:40;6.30;;;2.85;;
54575;SDS011;40472;53.486;14.542;2023-03-01T11:18:17;6.05;;;2.67;;
54575;SDS011;40472;53.486;14.542;2023-03-01T11:20:45;6.93;;;3.33;;
54575;SDS011;40472;53.486;14.542;2023-03-01T11:23:13;5.75;;;3.33;;
54575;SDS011;40472;53.486;14.542;2023-03-01T11:25:40;10.23;;;3.90;;
54575;SDS011;40472;53.486;14.542;2023-03-01T11:28:12;9.05;;;3.08;;
54575;SDS011;40472;53.486;14.542;2023-03-01T11:30:43;9.63;;;3.00;;
54575;SDS011;40472;53.486;14.542;2023-03-01T11:35:57;6.30;;;2.72;;
54575;SDS011;40472;53.486;14.542;2023-03-01T11:38:28;9.15;;;3.75;;
54575;SDS011;40472;53.486;14.542;2023-03-01T11:41:00;10.57;;;3.53;;
54575;SDS011;40472;53.486;14.542;2023-03-01T12:08:24;5.72;;;2.72;;
54575;SDS011;40472;53.486;14.542;2023-03-01T12:11:10;6.97;;;3.30;;
54575;SDS011;40472;53.486;14.542;2023-03-01T12:30:26;6.60;;;2.75;;
54575;SDS011;40472;53.486;14.542;2023-03-01T12:36:14;7.68;;;3.45;;
54575;SDS011;40472;53.486;14.542;2023-03-01T12:39:04;5.78;;;2.63;;
54575;SDS011;40472;53.486;14.542;2023-03-01T12:44:24;7.00;;;2.83;;
54575;SDS011;40472;53.486;14.542;2023-03-01T12:50:40;4.85;;;2.42;;
54575;SDS011;40472;53.486;14.542;2023-03-01T12:53:18;5.05;;;2.83;;
54575;SDS011;40472;53.486;14.542;2023-03-01T12:56:01;7.32;;;3.42;;
54575;SDS011;40472;53.486;14.542;2023-03-01T12:58:32;6.38;;;2.72;;
54575;SDS011;40472;53.486;14.542;2023-03-01T13:17:48;11.57;;;3.45;;
54575;SDS011;40472;53.486;14.542;2023-03-01T13:20:20;4.50;;;2.38;;
54575;SDS011;40472;53.486;14.542;2023-03-01T13:23:02;8.75;;;3.45;;
54575;SDS011;40472;53.486;14.542;2023-03-01T13:25:34;6.07;;;2.92;;
54575;SDS011;40472;53.486;14.542;2023-03-01T13:31:06;13.93;;;5.97;;
54575;SDS011;40472;53.486;14.542;2023-03-01T13:33:39;8.00;;;3.65;;
54575;SDS011;40472;53.486;14.542;2023-03-01T13:36:09;15.20;;;6.20;;
54575;SDS011;40472;53.486;14.542;2023-03-01T13:44:29;14.13;;;6.05;;
54575;SDS011;40472;53.486;14.542;2023-03-01T13:57:39;13.85;;;5.53;;
54575;SDS011;40472;53.486;14.542;2023-03-01T14:00:24;11.35;;;5.07;;
54575;SDS011;40472;53.486;14.542;2023-03-01T14:03:02;13.05;;;5.60;;
54575;SDS011;40472;53.486;14.542;2023-03-01T14:05:29;13.55;;;6.20;;
54575;SDS011;40472;53.486;14.542;2023-03-01T14:07:56;12.18;;;6.13;;
54575;SDS011;40472;53.486;14.542;2023-03-01T14:10:21;16.80;;;7.18;;
54575;SDS011;40472;53.486;14.542;2023-03-01T14:16:17;19.15;;;8.15;;
54575;SDS011;40472;53.486;14.542;2023-03-01T14:21:20;22.80;;;6.70;;
54575;SDS011;40472;53.486;14.542;2023-03-01T14:23:47;14.07;;;6.10;;
54575;SDS011;40472;53.486;14.542;2023-03-01T14:26:14;12.85;;;5.47;;
54575;SDS011;40472;53.486;14.542;2023-03-01T14:28:46;14.50;;;6.55;;
54575;SDS011;40472;53.486;14.542;2023-03-01T14:31:31;13.95;;;4.55;;
54575;SDS011;40472;53.486;14.542;2023-03-01T14:34:00;14.07;;;5.20;;
54575;SDS011;40472;53.486;14.542;2023-03-01T14:36:28;10.73;;;5.47;;
54575;SDS011;40472;53.486;14.542;2023-03-01T14:38:57;8.10;;;4.47;;
54575;SDS011;40472;53.486;14.542;2023-03-01T14:41:30;11.75;;;5.93;;
54575;SDS011;40472;53.486;14.542;2023-03-01T14:46:32;18.27;;;7.78;;
54575;SDS011;40472;53.486;14.542;2023-03-01T14:49:04;21.25;;;5.30;;
54575;SDS011;40472;53.486;14.542;2023-03-01T14:51:47;13.20;;;6.38;;
54575;SDS011;40472;53.486;14.542;2023-03-01T14:57:14;14.38;;;5.10;;
54575;SDS011;40472;53.486;14.542;2023-03-01T14:59:41;16.33;;;7.15;;
54575;SDS011;40472;53.486;14.542;2023-03-01T15:02:08;15.82;;;6.75;;
54575;SDS011;40472;53.486;14.542;2023-03-01T15:04:42;17.70;;;6.80;;
54575;SDS011;40472;53.486;14.542;2023-03-01T15:07:12;13.80;;;7.10;;
54575;SDS011;40472;53.486;14.542;2023-03-01T15:09:39;16.58;;;6.28;;
54575;SDS011;40472;53.486;14.542;2023-03-01T15:14:54;13.23;;;5.68;;
54575;SDS011;40472;53.486;14.542;2023-03-01T15:17:34;14.63;;;5.80;;
54575;SDS011;40472;53.486;14.542;2023-03-01T15:20:04;14.73;;;5.75;;
54575;SDS011;40472;53.486;14.542;2023-03-01T15:22:43;15.15;;;6.65;;
54575;SDS011;40472;53.486;14.542;2023-03-01T15:25:19;12.85;;;5.10;;
54575;SDS011;40472;53.486;14.542;2023-03-01T15:27:57;17.45;;;6.05;;
54575;SDS011;40472;53.486;14.542;2023-03-01T15:30:31;12.80;;;5.15;;
54575;SDS011;40472;53.486;14.542;2023-03-01T15:35:52;16.95;;;7.32;;
54575;SDS011;40472;53.486;14.542;2023-03-01T15:41:23;21.35;;;8.98;;
54575;SDS011;40472;53.486;14.542;2023-03-01T15:44:17;24.92;;;8.65;;
54575;SDS011;40472;53.486;14.542;2023-03-01T15:46:54;14.45;;;7.88;;
54575;SDS011;40472;53.486;14.542;2023-03-01T15:51:49;16.67;;;6.57;;
54575;SDS011;40472;53.486;14.542;2023-03-01T15:54:20;18.83;;;6.22;;
54575;SDS011;40472;53.486;14.542;2023-03-01T15:56:48;19.83;;;6.00;;
54575;SDS011;40472;53.486;14.542;2023-03-01T15:59:15;14.90;;;5.30;;
54575;SDS011;40472;53.486;14.542;2023-03-01T16:01:44;11.00;;;4.15;;
54575;SDS011;40472;53.486;14.542;2023-03-01T16:04:14;12.32;;;4.88;;
54575;SDS011;40472;53.486;14.542;2023-03-01T16:06:49;12.23;;;4.72;;
54575;SDS011;40472;53.486;14.542;2023-03-01T16:09:23;13.40;;;4.75;;
54575;SDS011;40472;53.486;14.542;2023-03-01T16:11:50;13.63;;;6.32;;
54575;SDS011;40472;53.486;14.542;2023-03-01T16:14:17;14.70;;;5.82;;
54575;SDS011;40472;53.486;14.542;2023-03-01T16:16:43;16.38;;;6.57;;
54575;SDS011;40472;53.486;14.542;2023-03-01T16:19:09;12.82;;;5.70;;
54575;SDS011;40472;53.486;14.542;2023-03-01T16:21:35;15.20;;;4.95;;
54575;SDS011;40472;53.486;14.542;2023-03-01T16:24:02;14.63;;;5.82;;
54575;SDS011;40472;53.486;14.542;2023-03-01T16:26:28;16.98;;;6.20;;
54575;SDS011;40472;53.486;14.542;2023-03-01T16:28:55;13.60;;;5.70;;
54575;SDS011;40472;53.486;14.542;2023-03-01T16:31:35;21.35;;;5.13;;
54575;SDS011;40472;53.486;14.542;2023-03-01T16:34:01;11.55;;;5.10;;
54575;SDS011;40472;53.486;14.542;2023-03-01T16:36:27;13.45;;;5.60;;
54575;SDS011;40472;53.486;14.542;2023-03-01T16:38:53;13.25;;;5.60;;
54575;SDS011;40472;53.486;14.542;2023-03-01T16:41:21;9.48;;;5.28;;
54575;SDS011;40472;53.486;14.542;2023-03-01T16:43:48;19.48;;;5.00;;
54575;SDS011;40472;53.486;14.542;2023-03-01T16:46:21;13.05;;;5.40;;
54575;SDS011;40472;53.486;14.542;2023-03-01T16:48:49;15.02;;;6.00;;
54575;SDS011;40472;53.486;14.542;2023-03-01T16:51:15;10.45;;;5.13;;
54575;SDS011;40472;53.486;14.542;2023-03-01T16:53:42;13.15;;;5.28;;
54575;SDS011;40472;53.486;14.542;2023-03-01T16:56:08;12.95;;;5.35;;
54575;SDS011;40472;53.486;14.542;2023-03-01T16:58:36;8.95;;;4.40;;
54575;SDS011;40472;53.486;14.542;2023-03-01T17:01:06;11.70;;;5.20;;
54575;SDS011;40472;53.486;14.542;2023-03-01T17:03:34;14.25;;;5.22;;
54575;SDS011;40472;53.486;14.542;2023-03-01T17:06:10;7.78;;;3.38;;
54575;SDS011;40472;53.486;14.542;2023-03-01T17:08:38;13.88;;;5.35;;